Time;durP1;ratioP1;P1;durP2;ratioP2;P2;SDS_P1;SDS_P2;PMS_P1;PMS_P2;Temp;Humidity;BMP_temperature;BMP_pressure;BME280_temperature;BME280_humidity;BME280_pressure;Samples;Min_cycle;Max_cycle;Signal;HPM_P1;HPM_P2
2023/06/16 00:01:01;;;;;;;11.02;9.07;;;;;;;13.54;96.44;99528.47;5052713;28;20484;-80
2023/06/16 00:03:27;;;;;;;10.07;8.35;;;;;;;13.58;97.31;99537.81;5052607;28;20036;-80
2023/06/16 00:05:52;;;;;;;11.40;9.02;;;;;;;13.59;96.81;99538.66;5052489;28;20108;-80
2023/06/16 00:08:19;;;;;;;11.52;9.20;;;;;;;13.58;96.78;99535.19;5052523;28;20096;-80
2023/06/16 00:10:44;;;;;;;11.98;8.30;;;;;;;13.63;96.56;99537.53;5052679;28;20147;-80
2023/06/16 00:13:09;;;;;;;9.45;8.27;;;;;;;13.46;97.00;99512.41;5052271;28;20037;-80
2023/06/16 00:15:35;;;;;;;10.40;9.27;;;;;;;13.41;97.29;99504.00;5052783;28;20446;-80
2023/06/16 00:18:01;;;;;;;9.82;8.82;;;;;;;13.63;96.83;99532.31;5051360;28;20021;-80
2023/06/16 00:20:26;;;;;;;10.10;9.10;;;;;;;13.41;96.66;99507.44;5052426;28;20079;-80
2023/06/16 00:22:52;;;;;;;10.50;8.93;;;;;;;13.56;96.76;99521.34;5052468;28;20025;-80
2023/06/16 00:25:18;;;;;;;13.65;8.85;;;;;;;13.43;96.26;99500.31;5052153;28;20065;-80
2023/06/16 00:27:44;;;;;;;11.00;9.65;;;;;;;13.50;96.37;99516.50;5050913;28;20028;-80
2023/06/16 00:30:10;;;;;;;11.52;9.23;;;;;;;13.56;96.44;99525.75;5052067;28;20024;-80
2023/06/16 00:32:35;;;;;;;10.40;9.30;;;;;;;13.55;96.44;99521.47;5052593;28;20118;-80
2023/06/16 00:35:00;;;;;;;11.15;9.05;;;;;;;13.38;96.64;99501.56;5052280;28;20049;-80
2023/06/16 00:37:26;;;;;;;10.07;8.75;;;;;;;13.39;96.61;99501.44;5052090;28;20025;-80
2023/06/16 00:39:51;;;;;;;13.13;9.57;;;;;;;13.38;97.55;99499.78;5052205;28;20476;-80
2023/06/16 00:42:16;;;;;;;12.15;10.43;;;;;;;13.39;98.24;99519.75;5051795;28;20017;-80
2023/06/16 00:44:42;;;;;;;10.82;9.73;;;;;;;13.14;98.37;99490.75;5052291;28;20059;-80
2023/06/16 00:47:07;;;;;;;10.40;8.32;;;;;;;13.25;98.98;99519.75;5052155;28;20392;-80
2023/06/16 00:49:33;;;;;;;9.75;8.73;;;;;;;13.14;98.70;99506.44;5051878;28;20155;-80
2023/06/16 00:52:01;;;;;;;11.70;9.20;;;;;;;12.96;98.39;99469.16;5052042;28;20177;-80
2023/06/16 00:54:27;;;;;;;9.85;8.25;;;;;;;13.11;98.20;99485.72;5052018;28;20362;-80
2023/06/16 00:56:52;;;;;;;10.07;9.02;;;;;;;13.21;98.31;99511.22;5051836;28;20032;-80
2023/06/16 00:59:18;;;;;;;10.35;8.45;;;;;;;13.07;98.12;99479.84;5051894;28;20416;-80
2023/06/16 01:01:44;;;;;;;10.48;8.27;;;;;;;13.25;98.50;99509.28;5052264;28;20039;-80
2023/06/16 01:04:09;;;;;;;8.10;7.30;;;;;;;13.24;98.56;99507.63;5051846;28;20530;-80
2023/06/16 01:06:41;;;;;;;8.50;7.63;;;;;;;13.21;98.28;99510.38;5051672;28;20029;-80
2023/06/16 01:09:42;;;;;;;;;;;;;;;13.18;98.33;99513.16;5052214;28;20025;-80
2023/06/16 01:12:10;;;;;;;10.20;7.95;;;;;;;13.10;98.93;99508.38;5049396;28;20366;-80
2023/06/16 01:14:52;;;;;;;27.65;15.55;;;;;;;12.83;99.11;99462.97;5049274;28;20039;-80
2023/06/16 01:17:21;;;;;;;19.05;11.93;;;;;;;12.81;99.03;99481.38;5049081;28;20047;-80
2023/06/16 01:19:57;;;;;;;14.82;9.77;;;;;;;12.73;99.06;99471.34;5052785;28;20033;-80
2023/06/16 01:22:31;;;;;;;14.18;8.27;;;;;;;12.80;98.57;99479.66;5053191;28;20091;-79
2023/06/16 01:25:03;;;;;;;12.13;8.52;;;;;;;12.91;98.65;99513.03;5053369;28;20036;-80
2023/06/16 01:27:30;;;;;;;13.07;9.02;;;;;;;12.80;98.21;99482.28;5053048;28;20115;-80
2023/06/16 01:29:57;;;;;;;9.95;8.32;;;;;;;12.90;98.04;99506.13;5053289;28;20109;-80
2023/06/16 01:32:25;;;;;;;8.70;7.80;;;;;;;12.82;97.93;99483.03;5052939;28;20037;-80
2023/06/16 01:34:51;;;;;;;9.93;8.35;;;;;;;12.73;97.87;99467.91;5052987;28;20162;-80
2023/06/16 01:37:19;;;;;;;10.93;8.13;;;;;;;12.88;97.93;99493.13;5052909;28;20076;-80
2023/06/16 01:39:47;;;;;;;10.13;7.15;;;;;;;12.82;98.17;99487.44;5053044;28;20408;-80
2023/06/16 01:42:15;;;;;;;12.20;7.97;;;;;;;12.75;98.41;99479.09;5052831;28;20388;-80
2023/06/16 01:44:42;;;;;;;8.55;7.63;;;;;;;12.83;98.79;99494.34;5053117;28;20025;-80
2023/06/16 01:47:08;;;;;;;11.57;8.25;;;;;;;12.85;99.19;99495.94;5055081;28;20064;-80
2023/06/16 01:49:34;;;;;;;8.57;7.43;;;;;;;12.87;99.48;99501.06;5055137;28;20025;-80
2023/06/16 01:52:00;;;;;;;9.65;7.70;;;;;;;12.92;99.63;99499.03;5055383;28;20025;-80
2023/06/16 01:54:25;;;;;;;8.98;7.70;;;;;;;12.83;99.97;99479.50;5055117;28;20108;-80
2023/06/16 01:56:50;;;;;;;9.82;8.70;;;;;;;12.88;99.99;99477.44;5055235;28;20032;-79
2023/06/16 01:59:17;;;;;;;9.73;8.73;;;;;;;13.04;100.00;99500.91;5054913;28;20543;-80
2023/06/16 02:01:49;;;;;;;11.30;9.57;;;;;;;12.91;100.00;99460.75;5054972;28;20032;-80
2023/06/16 02:04:19;;;;;;;11.13;8.70;;;;;;;12.89;100.00;99457.38;5054733;28;20481;-80
2023/06/16 02:06:58;;;;;;;13.40;10.27;;;;;;;13.02;100.00;99481.00;5055089;28;20024;-80
2023/06/16 02:09:25;;;;;;;11.98;9.18;;;;;;;13.04;100.00;99487.84;5053790;28;20439;-80
2023/06/16 02:11:53;;;;;;;10.43;8.82;;;;;;;12.84;100.00;99460.25;5055133;28;20021;-80
2023/06/16 02:14:18;;;;;;;9.65;8.20;;;;;;;12.96;100.00;99482.22;5054867;28;20069;-80
2023/06/16 02:16:44;;;;;;;9.90;8.90;;;;;;;12.91;100.00;99472.03;5054994;28;20075;-80
2023/06/16 02:19:11;;;;;;;10.77;9.02;;;;;;;12.91;100.00;99473.81;5054791;28;20036;-80
2023/06/16 02:21:37;;;;;;;10.73;9.65;;;;;;;12.95;100.00;99473.56;5054628;28;20135;-80
2023/06/16 02:24:04;;;;;;;10.88;9.77;;;;;;;12.64;100.00;99421.38;5054777;28;20041;-80
2023/06/16 02:26:30;;;;;;;14.80;10.20;;;;;;;12.94;100.00;99477.09;5054221;28;20025;-80
2023/06/16 02:28:55;;;;;;;12.85;10.75;;;;;;;12.93;100.00;99472.78;5054664;28;20108;-80
2023/06/16 02:31:21;;;;;;;15.57;10.73;;;;;;;12.89;100.00;99468.69;5054505;28;20107;-80
2023/06/16 02:33:50;;;;;;;12.20;10.25;;;;;;;12.85;100.00;99467.19;5054424;28;20595;-80
2023/06/16 02:36:16;;;;;;;12.75;10.75;;;;;;;12.83;100.00;99469.03;5054439;28;20033;-80
2023/06/16 02:38:41;;;;;;;11.65;9.63;;;;;;;12.69;100.00;99441.13;5054464;28;20108;-80
2023/06/16 02:41:08;;;;;;;13.82;11.65;;;;;;;12.83;100.00;99482.09;5054173;28;20049;-80
2023/06/16 02:43:33;;;;;;;13.45;11.90;;;;;;;12.68;100.00;99462.09;5054573;28;20059;-80
2023/06/16 02:46:00;;;;;;;13.27;10.10;;;;;;;12.60;100.00;99480.84;5054329;28;20491;-80
2023/06/16 02:48:26;;;;;;;13.70;11.52;;;;;;;12.51;100.00;99454.38;5054105;28;20037;-80
2023/06/16 02:50:51;;;;;;;14.30;10.88;;;;;;;12.64;100.00;99482.34;5054283;28;20027;-80
2023/06/16 02:53:18;;;;;;;11.57;10.38;;;;;;;12.62;100.00;99478.13;5053924;28;20025;-80
2023/06/16 02:55:46;;;;;;;11.95;10.73;;;;;;;12.68;100.00;99491.69;5054003;28;20025;-80
2023/06/16 02:58:11;;;;;;;13.27;10.00;;;;;;;12.62;100.00;99488.59;5054202;28;20057;-80
2023/06/16 03:00:37;;;;;;;11.07;9.98;;;;;;;12.64;100.00;99489.31;5053913;28;20083;-80
2023/06/16 03:03:02;;;;;;;11.48;10.27;;;;;;;12.61;100.00;99479.91;5054042;28;20032;-80
2023/06/16 03:05:28;;;;;;;11.10;9.98;;;;;;;12.69;100.00;99495.97;5053747;28;20075;-80
2023/06/16 03:07:53;;;;;;;11.63;10.30;;;;;;;12.70;100.00;99500.28;5053883;28;20028;-80
2023/06/16 03:10:19;;;;;;;10.63;9.55;;;;;;;12.71;100.00;99493.28;5053538;28;20028;-80
2023/06/16 03:12:44;;;;;;;11.60;9.93;;;;;;;12.52;100.00;99471.78;5053990;28;20029;-79
2023/06/16 03:15:10;;;;;;;12.88;10.32;;;;;;;12.57;100.00;99477.56;5053702;28;20082;-80
2023/06/16 03:17:36;;;;;;;15.25;11.32;;;;;;;12.64;100.00;99486.72;5053619;28;20041;-80
2023/06/16 03:20:04;;;;;;;12.50;11.18;;;;;;;12.51;100.00;99459.59;5052423;28;20021;-80
2023/06/16 03:22:29;;;;;;;14.75;12.57;;;;;;;12.61;100.00;99485.13;5053365;28;20033;-80
2023/06/16 03:25:02;;;;;;;13.77;12.15;;;;;;;12.44;100.00;99459.13;5053505;28;20436;-80
2023/06/16 03:27:28;;;;;;;15.93;11.57;;;;;;;12.67;100.00;99487.38;5053425;28;20037;-79
2023/06/16 03:29:53;;;;;;;20.90;14.73;;;;;;;12.38;100.00;99442.03;5053612;28;20552;-80
2023/06/16 03:32:18;;;;;;;16.95;12.27;;;;;;;12.67;100.00;99484.75;5053324;28;20028;-80
2023/06/16 03:34:44;;;;;;;20.00;13.55;;;;;;;12.48;100.00;99442.38;5053204;28;20041;-80
2023/06/16 03:37:09;;;;;;;16.50;13.75;;;;;;;12.67;100.00;99463.03;5053319;28;20044;-80
2023/06/16 03:39:35;;;;;;;16.77;14.05;;;;;;;12.72;100.00;99461.84;5053450;28;20029;-80
2023/06/16 03:42:00;;;;;;;17.13;13.13;;;;;;;12.81;100.00;99478.75;5053041;28;20021;-80
2023/06/16 03:44:25;;;;;;;16.45;12.98;;;;;;;12.89;100.00;99478.28;5053014;28;20039;-80
2023/06/16 03:46:51;;;;;;;18.20;14.10;;;;;;;12.88;100.00;99456.53;5053140;28;20057;-80
2023/06/16 03:49:16;;;;;;;15.98;13.30;;;;;;;12.93;100.00;99462.31;5053129;28;20021;-80
2023/06/16 03:51:42;;;;;;;18.23;14.68;;;;;;;13.09;100.00;99475.34;5052894;28;20017;-80
2023/06/16 03:54:11;;;;;;;15.60;13.85;;;;;;;13.09;100.00;99471.88;5052891;28;20047;-80
2023/06/16 03:56:37;;;;;;;16.10;13.68;;;;;;;13.07;100.00;99460.69;5052874;28;20066;-80
2023/06/16 03:59:02;;;;;;;15.43;13.73;;;;;;;13.32;100.00;99492.31;5053032;28;20112;-80
2023/06/16 04:01:27;;;;;;;18.27;13.95;;;;;;;13.35;100.00;99480.81;5052701;28;20110;-80
2023/06/16 04:03:53;;;;;;;14.65;12.98;;;;;;;13.43;100.00;99487.25;5052902;28;20040;-80
2023/06/16 04:06:18;;;;;;;14.63;13.13;;;;;;;13.39;100.00;99472.66;5052440;28;20025;-80
2023/06/16 04:08:47;;;;;;;18.88;14.13;;;;;;;13.53;100.00;99471.00;5052988;28;20047;-80
2023/06/16 04:11:13;;;;;;;16.45;14.23;;;;;;;13.84;100.00;99493.50;5052884;28;20029;-80
2023/06/16 04:13:39;;;;;;;15.23;13.70;;;;;;;14.05;100.00;99489.53;5052651;28;20052;-80
2023/06/16 04:16:05;;;;;;;16.48;13.25;;;;;;;14.38;100.00;99497.00;5052834;28;20021;-80
2023/06/16 04:18:30;;;;;;;15.40;12.65;;;;;;;14.66;100.00;99476.88;5052507;28;20021;-80
2023/06/16 04:20:56;;;;;;;15.68;11.65;;;;;;;15.06;97.85;99469.81;5052421;28;20385;-80
2023/06/16 04:23:21;;;;;;;14.02;12.35;;;;;;;15.42;94.82;99470.84;5052213;28;20476;-80
2023/06/16 04:25:47;;;;;;;14.57;12.57;;;;;;;15.97;92.42;99490.63;5052630;28;20029;-80
2023/06/16 04:28:14;;;;;;;15.93;14.02;;;;;;;16.43;89.68;99495.16;5052380;28;20063;-80
2023/06/16 04:30:41;;;;;;;18.25;13.38;;;;;;;16.70;88.22;99472.09;5052165;28;20548;-81
2023/06/16 04:33:06;;;;;;;13.40;11.90;;;;;;;17.04;86.99;99474.03;5052357;28;20365;-81
2023/06/16 04:35:33;;;;;;;14.32;12.75;;;;;;;17.19;85.56;99451.78;5051815;28;20075;-81
2023/06/16 04:37:59;;;;;;;14.35;12.85;;;;;;;17.19;84.26;99452.63;5052183;28;20107;-81
2023/06/16 04:40:25;;;;;;;14.15;12.65;;;;;;;17.36;84.60;99458.38;5052179;28;20029;-80
2023/06/16 04:42:51;;;;;;;13.68;12.38;;;;;;;17.58;83.42;99481.25;5052290;28;20029;-81
2023/06/16 04:45:16;;;;;;;15.98;12.98;;;;;;;17.84;83.20;99481.88;5052270;28;20120;-81
2023/06/16 04:47:42;;;;;;;14.68;11.93;;;;;;;18.00;80.67;99461.25;5051815;28;20652;-81
2023/06/16 04:50:09;;;;;;;13.00;11.60;;;;;;;18.56;78.51;99476.88;5050649;28;20374;-81
2023/06/16 04:52:36;;;;;;;12.90;11.30;;;;;;;19.05;76.87;99480.72;5051183;28;20052;-81
2023/06/16 04:55:02;;;;;;;13.02;11.60;;;;;;;19.34;74.99;99480.91;5051905;28;20465;-81
2023/06/16 04:57:27;;;;;;;13.77;10.60;;;;;;;19.26;75.16;99466.69;5052059;28;20036;-81
2023/06/16 04:59:52;;;;;;;14.43;11.60;;;;;;;19.30;74.74;99473.34;5052010;28;20032;-81
2023/06/16 05:02:18;;;;;;;13.30;10.73;;;;;;;19.21;74.89;99456.47;5051731;28;20029;-80
2023/06/16 05:04:43;;;;;;;12.45;10.38;;;;;;;19.49;75.15;99478.72;5051639;28;20028;-81
2023/06/16 05:07:10;;;;;;;12.95;10.90;;;;;;;19.56;73.96;99469.31;5040686;28;20119;-84
2023/06/16 05:09:37;;;;;;;12.30;11.00;;;;;;;19.80;73.58;99468.16;5032806;28;20028;-86
2023/06/16 05:12:02;;;;;;;12.93;11.18;;;;;;;20.39;72.36;99472.56;5031935;28;20030;-85
2023/06/16 05:14:28;;;;;;;11.38;10.15;;;;;;;21.32;69.73;99471.97;5030303;28;20033;-83
2023/06/16 05:16:53;;;;;;;12.13;10.30;;;;;;;22.14;67.11;99476.47;5031870;28;20033;-83
2023/06/16 05:19:18;;;;;;;10.52;9.52;;;;;;;22.40;65.30;99465.13;5031794;28;20075;-83
2023/06/16 05:21:44;;;;;;;10.93;9.88;;;;;;;22.23;65.54;99458.00;5032040;28;20486;-86
2023/06/16 05:24:09;;;;;;;10.88;9.77;;;;;;;21.98;66.60;99478.09;5032160;28;20025;-88
2023/06/16 05:26:35;;;;;;;10.25;9.32;;;;;;;21.61;67.27;99463.88;5030399;28;20595;-84
2023/06/16 05:29:00;;;;;;;10.18;9.15;;;;;;;21.63;68.33;99455.81;5031768;28;20499;-83
2023/06/16 05:31:26;;;;;;;10.95;9.85;;;;;;;22.00;67.10;99473.47;5031580;28;20030;-87
2023/06/16 05:33:51;;;;;;;10.68;9.68;;;;;;;22.43;66.19;99472.78;5030308;28;20042;-87
2023/06/16 05:36:16;;;;;;;11.73;10.40;;;;;;;23.11;63.89;99454.44;5031750;28;20030;-86
2023/06/16 05:38:42;;;;;;;11.93;9.75;;;;;;;24.23;60.92;99463.22;5031633;28;20037;-86
2023/06/16 05:41:07;;;;;;;11.18;9.75;;;;;;;24.81;59.95;99483.59;5030558;28;20029;-86
2023/06/16 05:43:33;;;;;;;10.75;9.48;;;;;;;24.18;60.84;99455.72;5030244;28;20092;-86
2023/06/16 05:45:58;;;;;;;11.07;9.88;;;;;;;23.99;61.87;99482.63;5030259;28;20033;-86
2023/06/16 05:48:23;;;;;;;9.70;8.77;;;;;;;23.81;62.46;99483.56;5030057;28;20072;-86
2023/06/16 05:50:49;;;;;;;10.70;9.57;;;;;;;23.32;62.74;99439.94;5030101;28;20022;-85
2023/06/16 05:53:14;;;;;;;10.55;9.40;;;;;;;23.38;63.24;99453.41;5031636;28;20025;-86
2023/06/16 05:55:40;;;;;;;10.25;9.25;;;;;;;23.42;63.22;99449.44;5030153;28;20651;-87
2023/06/16 05:58:05;;;;;;;9.93;8.48;;;;;;;23.46;63.28;99444.66;5030302;28;20037;-87
2023/06/16 06:00:30;;;;;;;10.70;9.13;;;;;;;23.81;63.03;99486.22;5029972;28;20465;-87
2023/06/16 06:02:56;;;;;;;9.73;8.52;;;;;;;23.82;62.21;99444.50;5030064;28;20064;-86
2023/06/16 06:05:21;;;;;;;10.38;9.02;;;;;;;24.17;61.91;99477.19;5033970;28;20496;-87
2023/06/16 06:07:46;;;;;;;8.85;8.05;;;;;;;24.27;62.04;99465.41;5033692;28;20492;-86
2023/06/16 06:10:12;;;;;;;9.80;8.90;;;;;;;24.60;61.15;99487.56;5033881;28;20068;-86
2023/06/16 06:12:37;;;;;;;9.48;8.57;;;;;;;24.80;60.90;99476.59;5033625;28;20058;-86
2023/06/16 06:15:03;;;;;;;11.20;10.10;;;;;;;24.78;59.80;99463.47;5033825;28;20029;-86
2023/06/16 06:17:28;;;;;;;9.20;8.30;;;;;;;25.02;60.62;99467.09;5033407;28;20549;-87
2023/06/16 06:19:54;;;;;;;10.65;8.73;;;;;;;25.10;59.38;99454.63;5032064;28;20099;-87
2023/06/16 06:22:20;;;;;;;9.10;8.13;;;;;;;25.48;59.48;99480.69;5032231;28;20132;-86
2023/06/16 06:24:45;;;;;;;9.38;8.45;;;;;;;26.22;57.90;99476.72;5032157;28;20125;-87
2023/06/16 06:27:11;;;;;;;9.23;8.40;;;;;;;27.33;55.73;99475.31;5032164;28;20469;-86
2023/06/16 06:29:37;;;;;;;8.23;7.63;;;;;;;28.50;52.60;99443.22;5032073;28;20422;-86
2023/06/16 06:32:07;;;;;;;8.88;8.00;;;;;;;29.92;49.95;99473.28;5032087;28;20040;-86
2023/06/16 06:34:33;;;;;;;8.73;7.95;;;;;;;30.37;48.73;99476.31;5031663;28;20041;-86
2023/06/16 06:36:58;;;;;;;8.77;8.00;;;;;;;30.56;48.27;99464.75;5032349;28;20032;-86
2023/06/16 06:39:23;;;;;;;8.10;7.40;;;;;;;30.47;48.04;99474.06;5032061;28;20489;-86
2023/06/16 06:41:49;;;;;;;8.70;7.80;;;;;;;30.87;47.94;99482.16;5032439;28;20036;-86
2023/06/16 06:44:14;;;;;;;8.40;7.60;;;;;;;31.05;47.18;99446.56;5031931;28;20060;-86
2023/06/16 06:46:40;;;;;;;8.40;7.70;;;;;;;31.24;46.80;99471.81;5031659;28;20095;-85
2023/06/16 06:49:05;;;;;;;8.68;7.38;;;;;;;32.21;45.85;99481.63;5031966;28;20041;-86
2023/06/16 06:51:30;;;;;;;8.60;7.90;;;;;;;32.24;44.79;99488.47;5032545;28;20057;-86
2023/06/16 06:53:56;;;;;;;8.10;7.30;;;;;;;31.93;45.54;99465.81;5033112;28;20072;-86
2023/06/16 06:56:22;;;;;;;9.40;6.95;;;;;;;32.95;45.32;99485.53;5034630;28;20022;-86
2023/06/16 06:58:48;;;;;;;8.20;7.45;;;;;;;34.35;42.30;99465.03;5034047;28;20091;-86
2023/06/16 07:01:13;;;;;;;7.85;7.15;;;;;;;34.85;42.28;99462.81;5032884;28;20508;-86
2023/06/16 07:03:39;;;;;;;8.50;7.70;;;;;;;35.83;41.18;99471.22;5032299;28;20064;-86
2023/06/16 07:06:04;;;;;;;8.07;7.25;;;;;;;36.21;40.56;99482.28;5034133;28;20057;-86
2023/06/16 07:08:29;;;;;;;8.00;6.90;;;;;;;35.61;40.93;99452.06;5032694;28;20397;-86
2023/06/16 07:10:55;;;;;;;9.68;8.77;;;;;;;34.96;40.64;99466.56;5034095;28;20029;-86
2023/06/16 07:13:20;;;;;;;8.27;7.57;;;;;;;34.39;41.91;99464.34;5032550;28;20021;-86
2023/06/16 07:15:46;;;;;;;7.40;6.70;;;;;;;35.24;41.45;99482.13;5032670;28;20021;-86
2023/06/16 07:18:11;;;;;;;7.22;6.63;;;;;;;34.49;41.95;99466.50;5032389;28;20025;-86
2023/06/16 07:20:37;;;;;;;7.93;7.13;;;;;;;33.03;43.22;99492.50;5033518;28;20034;-86
2023/06/16 07:23:02;;;;;;;8.00;7.00;;;;;;;31.18;45.17;99491.44;5033881;28;20040;-87
2023/06/16 07:25:28;;;;;;;8.73;7.93;;;;;;;29.52;47.56;99477.59;5034051;28;20033;-89
2023/06/16 07:27:54;;;;;;;8.07;7.38;;;;;;;28.37;49.71;99470.69;5032305;28;20018;-87
2023/06/16 07:30:19;;;;;;;8.32;7.53;;;;;;;27.85;51.18;99485.97;5032260;28;20040;-83
2023/06/16 07:32:45;;;;;;;10.73;7.63;;;;;;;27.64;51.43;99482.31;5032017;28;20029;-83
2023/06/16 07:35:11;;;;;;;8.68;7.78;;;;;;;27.25;52.19;99488.78;5033412;28;20049;-83
2023/06/16 07:37:36;;;;;;;10.73;8.55;;;;;;;26.30;53.24;99460.66;5033377;28;20037;-83
2023/06/16 07:40:03;;;;;;;7.47;6.80;;;;;;;25.46;55.44;99472.88;5033417;28;20040;-83
2023/06/16 07:42:28;;;;;;;10.55;6.55;;;;;;;25.05;55.83;99483.59;5033217;28;20431;-83
2023/06/16 07:44:54;;;;;;;7.60;6.07;;;;;;;24.61;56.82;99477.78;5033088;28;20112;-83
2023/06/16 07:47:19;;;;;;;6.93;6.22;;;;;;;24.38;57.27;99480.25;5032952;28;20096;-83
2023/06/16 07:49:45;;;;;;;7.20;6.55;;;;;;;24.13;58.32;99474.84;5031882;28;20033;-83
2023/06/16 07:52:11;;;;;;;7.72;6.53;;;;;;;23.73;59.27;99448.13;5033286;28;20378;-83
2023/06/16 07:54:37;;;;;;;7.03;6.25;;;;;;;23.79;59.57;99452.78;5031700;28;20053;-83
2023/06/16 07:57:02;;;;;;;8.63;6.57;;;;;;;23.89;59.45;99480.94;5032877;28;20493;-83
2023/06/16 07:59:28;;;;;;;8.45;6.15;;;;;;;23.94;59.47;99459.16;5046569;28;20060;-83
2023/06/16 08:01:53;;;;;;;11.70;7.35;;;;;;;23.93;58.32;99459.31;5051200;28;20027;-83
2023/06/16 08:04:18;;;;;;;11.38;7.13;;;;;;;23.90;58.37;99461.31;5053298;28;20384;-83
2023/06/16 08:06:44;;;;;;;8.48;5.97;;;;;;;23.94;58.82;99472.47;5051388;28;20031;-83
2023/06/16 08:09:10;;;;;;;7.43;6.65;;;;;;;24.12;59.32;99457.22;5052898;28;20560;-83
2023/06/16 08:11:35;;;;;;;8.18;6.50;;;;;;;24.47;58.34;99481.09;5051343;28;20035;-84
2023/06/16 08:14:01;;;;;;;8.10;6.45;;;;;;;24.71;57.20;99488.28;5051397;28;20123;-87
2023/06/16 08:16:26;;;;;;;6.35;5.80;;;;;;;24.75;57.37;99461.13;5051273;28;20031;-85
2023/06/16 08:18:55;;;;;;;9.25;5.78;;;;;;;25.04;56.38;99455.28;5049626;28;20033;-85
2023/06/16 08:21:20;;;;;;;9.65;6.72;;;;;;;25.23;56.15;99469.25;5031132;28;20358;-85
2023/06/16 08:23:46;;;;;;;7.25;6.30;;;;;;;25.41;55.96;99472.56;5045735;28;20037;-85
2023/06/16 08:26:11;;;;;;;7.95;7.15;;;;;;;25.35;56.08;99462.56;5052309;28;20029;-84
2023/06/16 08:28:40;;;;;;;7.55;6.28;;;;;;;25.50;55.15;99468.84;5050743;28;20465;-84
2023/06/16 08:31:06;;;;;;;9.15;6.65;;;;;;;25.39;55.60;99447.88;5052180;28;20036;-85
2023/06/16 08:33:32;;;;;;;12.18;7.35;;;;;;;25.39;54.75;99448.72;5051051;28;20074;-84
2023/06/16 08:35:57;;;;;;;7.35;6.63;;;;;;;25.29;55.31;99460.59;5052296;28;20028;-85
2023/06/16 08:38:23;;;;;;;7.93;7.10;;;;;;;25.13;55.63;99464.13;5051049;28;20021;-84
2023/06/16 08:40:48;;;;;;;7.55;6.85;;;;;;;25.10;55.52;99470.59;5050739;28;20044;-84
2023/06/16 08:43:14;;;;;;;6.78;5.95;;;;;;;24.98;55.54;99449.78;5052178;28;20175;-84
2023/06/16 08:45:40;;;;;;;7.90;5.72;;;;;;;25.09;55.15;99447.63;5051857;28;20029;-83
2023/06/16 08:48:05;;;;;;;7.05;5.55;;;;;;;25.28;54.65;99443.78;5052244;28;20079;-85
2023/06/16 08:50:32;;;;;;;7.43;6.30;;;;;;;25.41;54.44;99459.22;5046296;28;20473;-83
2023/06/16 08:52:58;;;;;;;7.55;6.18;;;;;;;25.44;54.64;99439.38;5032046;28;20040;-84
2023/06/16 08:55:25;;;;;;;7.32;5.95;;;;;;;25.53;54.87;99449.81;5032280;28;20040;-84
2023/06/16 08:57:53;;;;;;;6.22;5.63;;;;;;;25.47;54.88;99447.84;5031570;28;20033;-84
2023/06/16 09:00:19;;;;;;;6.65;5.80;;;;;;;25.41;55.12;99451.22;5031678;28;20026;-84
2023/06/16 09:02:55;;;;;;;6.75;4.95;;;;;;;25.37;54.43;99458.72;5030552;28;20541;-83
2023/06/16 09:05:22;;;;;;;8.23;5.85;;;;;;;25.42;53.77;99452.06;5030835;28;20025;-87
2023/06/16 09:07:49;;;;;;;6.47;5.40;;;;;;;25.25;53.61;99445.94;5035098;28;20044;-87
2023/06/16 09:10:16;;;;;;;5.72;5.22;;;;;;;25.16;53.38;99453.13;5050598;28;20057;-88
2023/06/16 09:12:42;;;;;;;6.38;5.57;;;;;;;24.94;54.11;99438.63;5050804;28;20033;-90
2023/06/16 09:15:10;;;;;;;8.07;6.10;;;;;;;24.99;54.76;99448.78;5051002;28;20033;-87
2023/06/16 09:17:37;;;;;;;7.38;5.82;;;;;;;24.79;55.63;99413.69;5034457;28;20032;-82
2023/06/16 09:20:06;;;;;;;7.68;5.35;;;;;;;25.00;56.12;99442.47;5032270;28;20025;-82
2023/06/16 09:22:32;;;;;;;5.68;5.13;;;;;;;25.00;55.39;99418.47;5032246;28;20026;-82
2023/06/16 09:25:05;;;;;;;8.55;5.72;;;;;;;25.21;55.43;99455.28;5031929;28;20033;-82
2023/06/16 09:27:50;;;;;;;11.77;6.72;;;;;;;25.07;55.21;99422.97;5031670;28;20052;-82
2023/06/16 09:30:18;;;;;;;6.60;6.00;;;;;;;25.14;54.53;99417.81;5032087;28;20104;-82
2023/06/16 09:32:49;;;;;;;7.78;6.45;;;;;;;25.28;54.91;99438.44;5031701;28;20159;-82
2023/06/16 09:35:22;;;;;;;6.47;5.87;;;;;;;25.21;53.29;99426.78;5031696;28;20046;-82
2023/06/16 09:37:49;;;;;;;6.85;5.55;;;;;;;25.11;54.26;99404.81;5031516;28;20037;-82
2023/06/16 09:40:15;;;;;;;7.38;5.90;;;;;;;25.21;54.19;99420.63;5034844;28;20376;-82
2023/06/16 09:42:43;;;;;;;6.93;4.88;;;;;;;25.00;54.80;99387.34;5035682;28;20033;-82
2023/06/16 09:45:12;;;;;;;7.07;5.35;;;;;;;25.29;54.36;99410.78;5035733;28;20090;-83
2023/06/16 09:47:38;;;;;;;5.57;5.07;;;;;;;25.52;53.94;99418.84;5035477;28;20640;-82
2023/06/16 09:50:06;;;;;;;6.07;5.43;;;;;;;25.48;53.68;99396.19;5035602;28;20036;-82
2023/06/16 09:52:34;;;;;;;5.80;4.90;;;;;;;25.54;53.95;99397.34;5034268;28;20477;-82
2023/06/16 09:55:00;;;;;;;5.40;4.88;;;;;;;25.75;53.73;99421.56;5035501;28;20370;-82
2023/06/16 09:57:27;;;;;;;5.75;5.05;;;;;;;25.60;53.27;99392.13;5035542;28;20600;-82
2023/06/16 09:59:53;;;;;;;6.05;5.20;;;;;;;25.58;53.33;99386.16;5035260;28;20386;-82
2023/06/16 10:02:19;;;;;;;6.15;5.55;;;;;;;25.60;53.65;99393.97;5035322;28;20018;-82
2023/06/16 10:04:45;;;;;;;6.78;6.05;;;;;;;25.79;53.73;99419.44;5033718;28;20022;-82
2023/06/16 10:07:11;;;;;;;6.15;5.55;;;;;;;25.77;53.54;99406.25;5035394;28;20037;-82
2023/06/16 10:09:44;;;;;;;5.72;5.13;;;;;;;25.79;53.66;99424.75;5035153;28;20070;-81
2023/06/16 10:12:12;;;;;;;7.93;5.47;;;;;;;25.61;53.35;99396.44;5035259;28;20025;-81
2023/06/16 10:14:40;;;;;;;8.82;5.57;;;;;;;25.57;53.87;99402.31;5035013;28;20040;-82
2023/06/16 10:17:08;;;;;;;6.25;5.32;;;;;;;25.51;54.11;99411.84;5035273;28;20033;-81
2023/06/16 10:19:36;;;;;;;5.65;5.15;;;;;;;25.25;54.51;99380.13;5035227;28;20029;-81
2023/06/16 10:22:03;;;;;;;5.03;4.63;;;;;;;25.19;54.61;99391.47;5035622;28;20028;-81
2023/06/16 10:24:30;;;;;;;5.72;5.22;;;;;;;25.16;54.17;99390.97;5033768;28;20026;-81
2023/06/16 10:26:56;;;;;;;7.63;5.55;;;;;;;25.20;54.73;99414.47;5034716;28;20507;-80
2023/06/16 10:29:25;;;;;;;6.55;4.78;;;;;;;24.97;55.34;99371.69;5042130;28;20029;-84
2023/06/16 10:32:02;;;;;;;7.00;5.20;;;;;;;25.12;54.58;99402.00;5036228;28;20036;-83
2023/06/16 10:34:27;;;;;;;5.75;5.15;;;;;;;25.10;55.12;99408.47;5034898;28;20061;-82
2023/06/16 10:36:54;;;;;;;5.72;5.22;;;;;;;24.88;54.78;99386.03;5034754;28;20489;-82
2023/06/16 10:39:20;;;;;;;5.20;4.70;;;;;;;25.03;53.17;99407.47;5034820;28;20025;-82
2023/06/16 10:41:55;;;;;;;5.07;4.60;;;;;;;25.00;52.79;99400.66;5050841;28;20108;-82
2023/06/16 10:44:25;;;;;;;5.57;4.80;;;;;;;24.94;53.32;99392.50;5054761;28;20075;-82
2023/06/16 10:47:05;;;;;;;5.82;5.05;;;;;;;25.02;53.85;99403.97;5054237;28;20021;-82
2023/06/16 10:49:31;;;;;;;5.95;4.78;;;;;;;25.02;54.29;99406.63;5054206;28;20040;-82
2023/06/16 10:51:58;;;;;;;9.32;5.47;;;;;;;24.89;55.15;99395.69;5052594;28;20384;-82
2023/06/16 10:54:33;;;;;;;6.20;5.47;;;;;;;24.96;55.41;99412.66;5054223;28;20427;-82
2023/06/16 10:57:08;;;;;;;5.70;4.78;;;;;;;24.87;55.19;99406.50;5053777;28;20116;-82
2023/06/16 10:59:56;;;;;;;4.90;4.22;;;;;;;24.87;52.94;99403.03;5053782;28;20025;-82
2023/06/16 11:02:24;;;;;;;4.25;3.90;;;;;;;24.80;52.57;99389.53;5053993;28;20493;-82
2023/06/16 11:05:08;;;;;;;4.75;4.25;;;;;;;24.87;50.69;99408.34;5053788;28;20025;-82
2023/06/16 11:08:01;;;;;;;4.65;4.05;;;;;;;24.71;50.29;99381.75;5052760;28;20548;-82
2023/06/16 11:10:27;;;;;;;4.45;4.05;;;;;;;24.84;50.62;99393.53;5054094;28;20484;-82
2023/06/16 11:12:52;;;;;;;6.20;4.75;;;;;;;24.72;50.15;99375.41;5053574;28;20027;-82
2023/06/16 11:15:21;;;;;;;5.28;4.80;;;;;;;24.83;48.94;99380.38;5053871;28;20025;-82
2023/06/16 11:17:50;;;;;;;5.82;4.78;;;;;;;24.67;49.64;99370.59;5053406;28;20024;-82
2023/06/16 11:20:18;;;;;;;5.80;4.80;;;;;;;24.71;49.66;99384.41;5053822;28;20109;-82
2023/06/16 11:22:43;;;;;;;5.40;4.90;;;;;;;24.67;50.39;99367.09;5052173;28;20021;-82
2023/06/16 11:25:09;;;;;;;6.32;5.25;;;;;;;24.61;50.24;99364.13;5053697;28;20487;-82